createdAt,value
2023-05-10T00:02:10.022Z,100704.06
2023-05-10T00:04:57.746Z,100709.97
2023-05-10T00:07:47.957Z,100730.19
2023-05-10T00:10:35.666Z,100724.03
2023-05-10T00:13:23.871Z,100695.28
2023-05-10T00:16:14.768Z,100698.78
2023-05-10T00:19:02.556Z,100714.47
2023-05-10T00:21:50.477Z,100692.69
2023-05-10T00:24:38.200Z,100716.81
2023-05-10T00:27:26.230Z,100722.22
2023-05-10T00:30:14.119Z,100710.91
2023-05-10T00:33:01.914Z,100707.63
2023-05-10T00:36:11.342Z,100717.38
2023-05-10T00:38:58.965Z,100683.66
2023-05-10T00:41:46.530Z,100710.91
2023-05-10T00:44:34.210Z,100682.47
2023-05-10T00:47:22.153Z,100703.13
2023-05-10T00:50:10.563Z,100677.53
2023-05-10T00:53:00.886Z,100687.34
2023-05-10T00:55:48.794Z,100699.41
2023-05-10T00:58:36.938Z,100712.06
2023-05-10T01:01:24.737Z,100692.75
2023-05-10T01:04:14.420Z,100707.97
2023-05-10T01:07:03.183Z,100667.59
2023-05-10T01:09:50.986Z,100677.47
2023-05-10T01:12:44.087Z,100676.44
2023-05-10T01:15:32.754Z,100689.59
2023-05-10T01:18:25.886Z,100690.66
2023-05-10T01:21:18.403Z,100695.97
2023-05-10T01:24:27.627Z,100690.34
2023-05-10T01:27:45.760Z,100660.59
2023-05-10T01:31:01.362Z,100686.44
2023-05-10T01:34:08.995Z,100699.28
2023-05-10T01:37:07.289Z,100675.19
2023-05-10T01:40:14.258Z,100685.22
2023-05-10T01:43:09.554Z,100659.44
2023-05-10T01:46:05.969Z,100678.03
2023-05-10T01:48:57.278Z,100686.31
2023-05-10T01:51:52.693Z,100662.81
2023-05-10T01:54:49.444Z,100668.34
2023-05-10T01:57:40.817Z,100664.59
2023-05-10T02:00:30.147Z,100659.78
2023-05-10T02:03:22.377Z,100677.47
2023-05-10T02:06:14.078Z,100665.13
2023-05-10T02:09:03.541Z,100658.81
2023-05-10T02:11:51.683Z,100658.19
2023-05-10T02:14:42.698Z,100630.28
2023-05-10T02:17:33.167Z,100585.78
2023-05-10T02:20:23.584Z,100654.44
2023-05-10T02:23:11.389Z,100661.63
2023-05-10T02:26:02.012Z,100643.81
2023-05-10T02:28:51.156Z,100655.16
2023-05-10T02:31:40.121Z,100633.19
2023-05-10T02:34:28.944Z,100660.69
2023-05-10T02:37:19.826Z,100651.28
2023-05-10T02:40:08.773Z,100627.00
2023-05-10T02:42:58.258Z,100649.09
2023-05-10T02:45:49.345Z,100650.59
2023-05-10T02:48:39.502Z,100649.25
2023-05-10T02:52:01.181Z,100632.16
2023-05-10T02:54:54.118Z,100627.47
2023-05-10T02:57:47.540Z,100649.84
2023-05-10T03:00:35.327Z,100654.78
2023-05-10T03:03:23.327Z,100652.38
2023-05-10T03:06:12.436Z,100656.38
2023-05-10T03:09:00.634Z,100665.94
2023-05-10T03:12:08.385Z,100659.59
2023-05-10T03:14:56.339Z,100656.38
2023-05-10T03:17:50.760Z,100651.53
2023-05-10T03:21:04.296Z,100646.09
2023-05-10T03:24:01.620Z,100657.84
2023-05-10T03:26:51.561Z,100649.72
2023-05-10T03:29:40.925Z,100639.75
2023-05-10T03:32:33.979Z,100652.34
2023-05-10T03:35:22.841Z,100661.16
2023-05-10T03:38:10.950Z,100649.06
2023-05-10T03:40:59.063Z,100658.69
2023-05-10T03:43:46.848Z,100661.50
2023-05-10T03:46:34.750Z,100657.78
2023-05-10T03:49:25.177Z,100666.78
2023-05-10T03:52:13.247Z,100667.00
2023-05-10T03:55:00.955Z,100656.72
2023-05-10T03:57:50.750Z,100661.13
2023-05-10T04:00:38.808Z,100598.06
2023-05-10T04:03:27.645Z,100660.44
2023-05-10T04:06:15.344Z,100667.84
2023-05-10T04:09:05.478Z,100653.75
2023-05-10T04:11:53.140Z,100636.66
2023-05-10T04:14:40.911Z,100660.06
2023-05-10T04:17:28.583Z,100657.09
2023-05-10T04:20:16.770Z,100664.13
2023-05-10T04:23:04.586Z,100659.88
2023-05-10T04:25:52.406Z,100640.09
2023-05-10T04:28:40.293Z,100659.22
2023-05-10T04:31:29.088Z,100655.34
2023-05-10T04:34:16.665Z,100633.69
2023-05-10T04:37:04.285Z,100655.47
2023-05-10T04:39:51.958Z,100661.81
2023-05-10T04:42:42.707Z,100652.75
2023-05-10T04:45:30.250Z,100656.81
2023-05-10T04:48:17.918Z,100621.56
2023-05-10T04:51:05.931Z,100658.97
2023-05-10T04:54:05.186Z,100649.09
2023-05-10T04:56:54.199Z,100648.97
2023-05-10T04:59:41.896Z,100622.28
2023-05-10T05:02:29.474Z,100640.78
2023-05-10T05:05:17.174Z,100646.66
2023-05-10T05:08:05.092Z,100647.38
2023-05-10T05:10:52.914Z,100646.34
2023-05-10T05:13:40.370Z,100651.31
2023-05-10T05:16:28.159Z,100639.25
2023-05-10T05:19:15.697Z,100610.56
2023-05-10T05:22:03.289Z,100634.72
2023-05-10T05:24:50.881Z,100628.53
2023-05-10T05:27:38.844Z,100639.28
2023-05-10T05:30:26.626Z,100626.72
2023-05-10T05:33:17.195Z,100624.81
2023-05-10T05:36:06.778Z,100629.47
2023-05-10T05:38:54.450Z,100629.38
2023-05-10T05:41:41.953Z,100618.03
2023-05-10T05:44:30.030Z,100634.81
2023-05-10T05:47:17.561Z,100636.00
2023-05-10T05:50:06.245Z,100639.75
2023-05-10T05:52:53.809Z,100644.31
2023-05-10T05:55:41.581Z,100652.59
2023-05-10T05:58:29.155Z,100642.06
2023-05-10T06:01:17.007Z,100645.72
2023-05-10T06:04:04.723Z,100652.53
2023-05-10T06:06:52.562Z,100662.16
2023-05-10T06:09:40.098Z,100633.22
2023-05-10T06:12:27.772Z,100643.19
2023-05-10T06:15:15.335Z,100615.41
2023-05-10T06:18:03.475Z,100627.09
2023-05-10T06:20:51.507Z,100644.84
2023-05-10T06:23:39.265Z,100636.63
2023-05-10T06:26:26.865Z,100626.19
2023-05-10T06:29:16.466Z,100650.97
2023-05-10T06:32:04.417Z,100652.53
2023-05-10T06:34:52.199Z,100642.13
2023-05-10T06:37:39.799Z,100637.59
2023-05-10T06:40:27.429Z,100655.34
2023-05-10T06:43:15.457Z,100651.47
2023-05-10T06:46:03.213Z,100655.13
2023-05-10T06:48:51.135Z,100650.75
2023-05-10T06:51:38.878Z,100652.34
2023-05-10T06:54:26.436Z,100631.88
2023-05-10T06:57:30.043Z,100650.19
2023-05-10T07:00:21.527Z,100656.06
2023-05-10T07:03:09.424Z,100653.66
2023-05-10T07:06:05.093Z,100654.69
2023-05-10T07:08:52.770Z,100645.69
2023-05-10T07:11:44.515Z,100639.00
2023-05-10T07:14:32.249Z,100635.25
2023-05-10T07:17:20.051Z,100645.88
2023-05-10T07:20:08.504Z,100651.69
2023-05-10T07:22:56.061Z,100667.25
2023-05-10T07:25:46.703Z,100650.84
2023-05-10T07:28:34.238Z,100648.09
2023-05-10T07:31:21.867Z,100657.34
2023-05-10T07:34:09.900Z,100667.19
2023-05-10T07:37:00.637Z,100664.28
2023-05-10T07:39:51.208Z,100645.59
2023-05-10T07:42:44.108Z,100667.72
2023-05-10T07:45:42.020Z,100642.16
2023-05-10T07:48:32.572Z,100664.75
2023-05-10T07:51:20.169Z,100667.75
2023-05-10T07:54:08.907Z,100677.63
2023-05-10T07:56:56.672Z,100664.53
2023-05-10T07:59:45.393Z,100671.31
2023-05-10T08:02:34.113Z,100672.72
2023-05-10T08:08:33.422Z,100669.34
2023-05-10T08:11:22.408Z,100665.50
2023-05-10T08:14:10.074Z,100661.03
2023-05-10T08:16:57.771Z,100662.78
2023-05-10T08:19:45.281Z,100663.78
2023-05-10T08:22:32.892Z,100660.25
2023-05-10T08:25:22.754Z,100642.31
2023-05-10T08:28:11.838Z,100660.56
2023-05-10T08:30:59.694Z,100652.56
2023-05-10T08:33:47.459Z,100654.66
2023-05-10T08:36:35.059Z,100655.06
2023-05-10T08:39:29.786Z,100653.44
2023-05-10T08:42:24.117Z,100646.19
2023-05-10T08:45:13.493Z,100655.75
2023-05-10T08:48:03.339Z,100650.75
2023-05-10T08:50:56.085Z,100636.44
2023-05-10T08:53:43.834Z,100661.06
2023-05-10T08:56:31.647Z,100651.41
2023-05-10T08:59:19.259Z,100649.06
2023-05-10T09:02:07.565Z,100641.59
2023-05-10T09:04:55.277Z,100648.03
2023-05-10T09:07:43.390Z,100638.81
2023-05-10T09:10:32.257Z,100637.94
2023-05-10T09:13:21.013Z,100651.94
2023-05-10T09:16:20.361Z,100649.25
2023-05-10T09:19:09.985Z,100648.44
2023-05-10T09:21:57.514Z,100638.78
2023-05-10T09:24:46.513Z,100640.44
2023-05-10T09:27:34.861Z,100648.06
2023-05-10T09:30:26.882Z,100636.44
2023-05-10T09:33:14.471Z,100642.81
2023-05-10T09:36:09.424Z,100620.44
2023-05-10T09:38:57.100Z,100648.03
2023-05-10T09:41:45.448Z,100618.44
2023-05-10T09:44:36.746Z,100614.88
2023-05-10T09:47:26.497Z,100632.44
2023-05-10T09:50:14.327Z,100638.03
2023-05-10T09:53:04.887Z,100574.88
2023-05-10T09:55:52.575Z,100617.66
2023-05-10T09:58:40.828Z,100601.91
2023-05-10T10:01:28.364Z,100614.63
2023-05-10T10:04:16.534Z,100619.13
2023-05-10T10:07:06.068Z,100618.03
2023-05-10T10:09:54.359Z,100613.22
2023-05-10T10:12:42.888Z,100613.63
2023-05-10T10:15:30.878Z,100605.91
2023-05-10T10:18:19.104Z,100598.03
2023-05-10T10:21:10.011Z,100598.66
2023-05-10T10:23:57.638Z,100567.13
2023-05-10T10:26:47.760Z,100563.19
2023-05-10T10:29:47.109Z,100580.03
2023-05-10T10:33:29.218Z,100592.22
2023-05-10T10:36:17.231Z,100586.97
2023-05-10T10:39:11.229Z,100585.47
2023-05-10T10:42:00.217Z,100570.69
2023-05-10T10:44:47.957Z,100582.69
2023-05-10T10:47:36.122Z,100585.22
2023-05-10T10:50:23.947Z,100582.69
2023-05-10T10:53:14.574Z,100539.94
2023-05-10T10:56:14.788Z,100564.31
2023-05-10T10:59:02.974Z,100553.03
2023-05-10T11:01:53.415Z,100553.84
2023-05-10T11:04:47.729Z,100558.00
2023-05-10T11:07:35.970Z,100553.56
2023-05-10T11:10:28.103Z,100544.97
2023-05-10T11:13:15.949Z,100564.03
2023-05-10T11:16:20.271Z,100541.97
2023-05-10T11:19:13.325Z,100559.06
2023-05-10T11:22:14.629Z,100550.56
2023-05-10T11:25:02.476Z,100535.75
2023-05-10T11:27:50.087Z,100551.88
2023-05-10T11:30:40.791Z,100521.88
2023-05-10T11:33:28.403Z,100526.91
2023-05-10T11:36:17.832Z,100534.19
2023-05-10T11:39:05.982Z,100520.28
2023-05-10T11:41:53.752Z,100541.59
2023-05-10T11:44:42.258Z,100525.66
2023-05-10T11:47:29.911Z,100532.34
2023-05-10T11:50:19.001Z,100533.59
2023-05-10T11:53:07.122Z,100527.31
2023-05-10T11:55:54.720Z,100535.75
2023-05-10T11:58:42.448Z,100519.91
2023-05-10T12:01:30.425Z,100504.13
2023-05-10T12:04:18.589Z,100518.22
2023-05-10T12:07:06.379Z,100520.59
2023-05-10T12:10:16.410Z,100457.03
2023-05-10T12:13:04.421Z,100507.31
2023-05-10T12:15:52.108Z,100506.78
2023-05-10T12:18:41.661Z,100517.72
2023-05-10T12:21:31.895Z,100503.72
2023-05-10T12:24:20.365Z,100515.63
2023-05-10T12:27:09.990Z,100500.94
2023-05-10T12:30:00.913Z,100512.25
2023-05-10T12:32:48.664Z,100512.03
2023-05-10T12:35:46.826Z,100498.13
2023-05-10T12:38:37.064Z,100499.00
2023-05-10T12:41:26.155Z,100509.66
2023-05-10T12:44:13.845Z,100497.09
2023-05-10T12:47:01.390Z,100455.28
2023-05-10T12:49:49.010Z,100488.50
2023-05-10T12:52:36.574Z,100488.94
2023-05-10T12:55:24.189Z,100491.75
2023-05-10T12:58:15.780Z,100478.22
2023-05-10T13:01:09.712Z,100481.03
2023-05-10T13:03:57.455Z,100471.84
2023-05-10T13:06:45.167Z,100484.22
2023-05-10T13:09:32.627Z,100467.88
2023-05-10T13:12:20.488Z,100461.06
2023-05-10T13:15:08.783Z,100460.69
2023-05-10T13:17:56.579Z,100433.53
2023-05-10T13:20:45.452Z,100438.75
2023-05-10T13:23:33.138Z,100456.28
2023-05-10T13:26:21.233Z,100448.69
2023-05-10T13:29:09.178Z,100431.13
2023-05-10T13:31:56.813Z,100449.47
2023-05-10T13:34:44.505Z,100453.91
2023-05-10T13:37:33.526Z,100449.47
2023-05-10T13:40:21.209Z,100425.53
2023-05-10T13:43:08.863Z,100443.13
2023-05-10T13:45:56.783Z,100431.97
2023-05-10T13:48:44.343Z,100435.53
2023-05-10T13:51:32.934Z,100409.97
2023-05-10T13:54:21.049Z,100409.97
2023-05-10T13:57:08.806Z,100421.97
2023-05-10T13:59:57.686Z,100417.13
2023-05-10T14:02:45.620Z,100432.72
2023-05-10T14:05:33.848Z,100434.31
2023-05-10T14:08:22.009Z,100434.31
2023-05-10T14:11:09.976Z,100418.75
2023-05-10T14:13:57.918Z,100415.56
2023-05-10T14:16:46.472Z,100431.50
2023-05-10T14:19:37.396Z,100435.53
2023-05-10T14:22:25.026Z,100416.78
2023-05-10T14:25:13.946Z,100426.72
2023-05-10T14:28:01.991Z,100423.56
2023-05-10T14:30:49.796Z,100426.72
2023-05-10T14:33:48.128Z,100420.75
2023-05-10T14:36:52.529Z,100362.91
2023-05-10T14:40:40.148Z,100364.09
2023-05-10T14:43:35.811Z,100354.91
2023-05-10T14:46:26.235Z,100421.53
2023-05-10T14:49:16.807Z,100416.34
2023-05-10T14:53:03.739Z,100420.31
2023-05-10T14:56:10.863Z,100418.28
2023-05-10T14:58:58.591Z,100403.81
2023-05-10T15:01:49.003Z,100417.31
2023-05-10T15:04:39.593Z,100417.44
2023-05-10T15:07:27.851Z,100416.47
2023-05-10T15:10:16.233Z,100416.94
2023-05-10T15:13:08.072Z,100359.91
2023-05-10T15:15:57.745Z,100412.19
2023-05-10T15:18:45.958Z,100375.91
2023-05-10T15:21:39.892Z,100404.66
2023-05-10T15:24:27.747Z,100401.06
2023-05-10T15:27:15.374Z,100407.03
2023-05-10T15:30:03.464Z,100390.31
2023-05-10T15:32:51.214Z,100395.53
2023-05-10T15:35:40.786Z,100405.97
2023-05-10T15:38:28.557Z,100388.03
2023-05-10T15:41:16.328Z,100409.59
2023-05-10T15:44:08.180Z,100392.81
2023-05-10T15:46:55.778Z,100390.81
2023-05-10T15:49:43.425Z,100354.91
2023-05-10T15:52:31.139Z,100382.84
2023-05-10T15:55:19.693Z,100356.91
2023-05-10T15:58:07.645Z,100380.84
2023-05-10T16:00:55.363Z,100337.38
2023-05-10T16:03:43.522Z,100364.88
2023-05-10T16:06:34.460Z,100376.06
2023-05-10T16:09:22.536Z,100365.28
2023-05-10T16:12:10.270Z,100367.69
2023-05-10T16:14:58.019Z,100370.84
2023-05-10T16:17:45.713Z,100374.47
2023-05-10T16:20:36.413Z,100380.41
2023-05-10T16:23:24.063Z,100378.44
2023-05-10T16:26:11.959Z,100380.03
2023-05-10T16:29:00.887Z,100385.22
2023-05-10T16:31:48.729Z,100356.81
2023-05-10T16:34:36.584Z,100368.38
2023-05-10T16:37:24.356Z,100385.13
2023-05-10T16:40:13.484Z,100365.13
2023-05-10T16:43:01.825Z,100398.25
2023-05-10T16:45:50.670Z,100397.44
2023-05-10T16:48:38.533Z,100380.69
2023-05-10T16:51:27.016Z,100389.44
2023-05-10T16:54:14.834Z,100399.00
2023-05-10T16:57:02.479Z,100407.72
2023-05-10T16:59:50.193Z,100419.63
2023-05-10T17:02:38.107Z,100394.47
2023-05-10T17:05:29.616Z,100409.94
2023-05-10T17:08:17.568Z,100398.66
2023-05-10T17:11:05.519Z,100417.91
2023-05-10T17:13:56.146Z,100409.00
2023-05-10T17:16:48.250Z,100419.78
2023-05-10T17:19:36.433Z,100403.72
2023-05-10T17:22:25.670Z,100369.66
2023-05-10T17:25:13.404Z,100416.88
2023-05-10T17:28:01.295Z,100429.97
2023-05-10T17:30:59.857Z,100427.13
2023-05-10T17:33:47.689Z,100396.28
2023-05-10T17:36:36.121Z,100424.63
2023-05-10T17:39:26.800Z,100432.16
2023-05-10T17:42:17.654Z,100426.13
2023-05-10T17:45:05.935Z,100426.91
2023-05-10T17:47:53.931Z,100436.47
2023-05-10T17:50:45.014Z,100431.22
2023-05-10T17:53:34.253Z,100430.38
2023-05-10T17:56:28.252Z,100442.66
2023-05-10T17:59:15.927Z,100419.13
2023-05-10T18:02:03.781Z,100417.91
2023-05-10T18:04:52.847Z,100442.56
2023-05-10T18:07:40.827Z,100433.75
2023-05-10T18:10:28.475Z,100444.13
2023-05-10T18:13:17.232Z,100452.81
2023-05-10T18:16:09.040Z,100440.00
2023-05-10T18:19:04.006Z,100442.78
2023-05-10T18:21:52.594Z,100465.81
2023-05-10T18:24:40.469Z,100449.91
2023-05-10T18:27:31.708Z,100459.41
2023-05-10T18:30:19.703Z,100469.19
2023-05-10T18:33:10.292Z,100454.88
2023-05-10T18:36:01.156Z,100443.72
2023-05-10T18:38:51.387Z,100464.03
2023-05-10T18:41:39.484Z,100454.75
2023-05-10T18:44:27.267Z,100470.31
2023-05-10T18:47:15.348Z,100469.06
2023-05-10T18:50:05.319Z,100422.66
2023-05-10T18:52:53.178Z,100473.00
2023-05-10T18:55:40.856Z,100461.25
2023-05-10T18:58:29.557Z,100473.28
2023-05-10T19:01:17.468Z,100471.69
2023-05-10T19:04:05.521Z,100473.06
2023-05-10T19:06:53.370Z,100461.22
2023-05-10T19:09:41.403Z,100470.00
2023-05-10T19:12:29.135Z,100473.16
2023-05-10T19:15:20.907Z,100453.94
2023-05-10T19:18:09.714Z,100494.88
2023-05-10T19:20:57.608Z,100485.19
2023-05-10T19:23:47.350Z,100483.56
2023-05-10T19:26:37.608Z,100481.91
2023-05-10T19:29:25.218Z,100480.31
2023-05-10T19:32:15.394Z,100476.63
2023-05-10T19:35:21.634Z,100494.63
2023-05-10T19:38:09.405Z,100490.63
2023-05-10T19:41:00.476Z,100473.47
2023-05-10T19:43:48.190Z,100484.09
2023-05-10T19:46:35.944Z,100481.13
2023-05-10T19:49:23.796Z,100487.41
2023-05-10T19:52:12.472Z,100468.25
2023-05-10T19:55:00.422Z,100483.00
2023-05-10T19:57:52.764Z,100470.41
2023-05-10T20:00:40.679Z,100483.13
2023-05-10T20:03:29.279Z,100469.09
2023-05-10T20:06:17.057Z,100469.66
2023-05-10T20:09:05.188Z,100447.41
2023-05-10T20:11:55.379Z,100478.06
2023-05-10T20:14:43.085Z,100473.25
2023-05-10T20:17:30.985Z,100449.19
2023-05-10T20:20:20.277Z,100499.28
2023-05-10T20:23:08.352Z,100493.16
2023-05-10T20:25:56.102Z,100472.25
2023-05-10T20:28:43.799Z,100475.19
2023-05-10T20:31:31.501Z,100488.66
2023-05-10T20:34:19.345Z,100479.06
2023-05-10T20:37:07.221Z,100476.03
2023-05-10T20:39:55.254Z,100477.56
2023-05-10T20:42:42.919Z,100485.59
2023-05-10T20:45:33.897Z,100461.75
2023-05-10T20:48:22.225Z,100473.13
2023-05-10T20:51:10.303Z,100474.22
2023-05-10T20:53:58.138Z,100481.69
2023-05-10T20:56:45.961Z,100466.78
2023-05-10T20:59:34.074Z,100489.41
2023-05-10T21:02:24.001Z,100459.56
2023-05-10T21:05:12.129Z,100493.16
2023-05-10T21:08:00.048Z,100498.97
2023-05-10T21:10:47.738Z,100484.16
2023-05-10T21:13:35.645Z,100485.91
2023-05-10T21:16:25.739Z,100494.59
2023-05-10T21:19:13.581Z,100470.03
2023-05-10T21:22:01.290Z,100488.06
2023-05-10T21:24:49.223Z,100478.34
2023-05-10T21:27:39.217Z,100457.47
2023-05-10T21:30:28.243Z,100498.25
2023-05-10T21:33:15.958Z,100499.06
2023-05-10T21:36:04.161Z,100497.78
2023-05-10T21:38:51.875Z,100484.50
2023-05-10T21:41:39.695Z,100478.59
2023-05-10T21:44:27.348Z,100488.34
2023-05-10T21:47:15.194Z,100484.41
2023-05-10T21:50:03.116Z,100500.63
2023-05-10T21:52:50.691Z,100498.97
2023-05-10T21:55:38.308Z,100488.56
2023-05-10T21:58:26.050Z,100500.56
2023-05-10T22:01:15.250Z,100488.78
2023-05-10T22:04:03.114Z,100475.50
2023-05-10T22:06:50.757Z,100494.78
2023-05-10T22:09:38.562Z,100486.19
2023-05-10T22:12:26.742Z,100482.22
2023-05-10T22:15:14.574Z,100502.22
2023-05-10T22:18:02.458Z,100499.09
2023-05-10T22:20:53.237Z,100492.16
2023-05-10T22:23:40.882Z,100492.59
2023-05-10T22:26:28.624Z,100489.31
2023-05-10T22:29:16.357Z,100483.19
2023-05-10T22:32:06.136Z,100488.88
2023-05-10T22:34:56.604Z,100482.88
2023-05-10T22:37:44.335Z,100485.16
2023-05-10T22:40:32.425Z,100464.63
2023-05-10T22:43:20.310Z,100490.53
2023-05-10T22:46:07.985Z,100499.13
2023-05-10T22:48:59.065Z,100485.03
2023-05-10T22:51:46.888Z,100486.53
2023-05-10T22:54:36.296Z,100480.88
2023-05-10T22:57:24.727Z,100487.22
2023-05-10T23:00:12.855Z,100455.66
2023-05-10T23:03:00.647Z,100481.19
2023-05-10T23:05:48.440Z,100449.88
2023-05-10T23:08:36.015Z,100477.44
2023-05-10T23:11:23.901Z,100462.91
2023-05-10T23:14:12.038Z,100485.38
2023-05-10T23:16:59.731Z,100482.56
2023-05-10T23:19:47.433Z,100480.03
2023-05-10T23:22:37.690Z,100489.03
2023-05-10T23:25:25.384Z,100488.22
2023-05-10T23:28:13.268Z,100490.16
2023-05-10T23:31:05.319Z,100484.91
2023-05-10T23:33:52.906Z,100485.44
2023-05-10T23:36:40.740Z,100496.72
2023-05-10T23:39:28.621Z,100454.81
2023-05-10T23:42:16.665Z,100491.00
2023-05-10T23:45:04.997Z,100466.69
2023-05-10T23:47:53.030Z,100479.53
2023-05-10T23:50:45.047Z,100483.47
2023-05-10T23:53:32.716Z,100463.91
2023-05-10T23:56:20.502Z,100477.31
2023-05-10T23:59:10.552Z,100463.28
